Time;durP1;ratioP1;P1;durP2;ratioP2;P2;SDS_P1;SDS_P2;PMS_P1;PMS_P2;Temp;Humidity;BMP_temperature;BMP_pressure;BME280_temperature;BME280_humidity;BME280_pressure;Samples;Min_cycle;Max_cycle;Signal;HPM_P1;HPM_P2
2022/05/02 00:00:50;;;;;;;8.50;3.53;;;332.90;2329.60;;;;;;4955449;28;20046;-81
2022/05/02 00:03:15;;;;;;;5.97;3.78;;;332.90;2329.60;;;;;;4954128;28;20033;-79
2022/05/02 00:05:42;;;;;;;6.18;3.65;;;332.90;2329.60;;;;;;4960760;28;20023;-79
2022/05/02 00:08:08;;;;;;;7.50;3.40;;;332.90;2329.60;;;;;;4960447;28;20019;-78
2022/05/02 00:10:34;;;;;;;9.45;3.28;;;332.90;2329.60;;;;;;4941272;28;20489;-81
2022/05/02 00:13:01;;;;;;;9.13;3.78;;;333.00;2329.60;;;;;;4954358;28;20030;-80
2022/05/02 00:15:27;;;;;;;7.25;4.13;;;333.10;2329.60;;;;;;4955148;28;20031;-81
2022/05/02 00:17:56;;;;;;;6.00;3.72;;;332.90;2329.60;;;;;;4953318;28;20376;-80
2022/05/02 00:20:31;;;;;;;6.38;4.00;;;333.00;2329.60;;;;;;4953117;28;20041;-81
2022/05/02 00:22:59;;;;;;;8.67;3.30;;;332.90;2329.60;;;;;;4952346;28;20027;-79
2022/05/02 00:25:26;;;;;;;5.22;3.50;;;332.90;2329.60;;;;;;4969973;28;20027;-80
2022/05/02 00:27:51;;;;;;;7.57;3.58;;;332.90;2329.60;;;;;;4953341;28;20027;-81
2022/05/02 00:30:18;;;;;;;8.63;3.97;;;332.90;2329.60;;;;;;4952673;28;20031;-80
2022/05/02 00:32:45;;;;;;;5.72;3.65;;;332.80;2329.60;;;;;;4967091;28;20099;-80
2022/05/02 00:35:11;;;;;;;5.63;3.35;;;308.10;2304.00;;;;;;4953747;28;20019;-81
2022/05/02 00:37:38;;;;;;;5.88;3.20;;;308.10;2304.00;;;;;;4953246;28;20384;-80
2022/05/02 00:40:08;;;;;;;5.28;3.25;;;332.80;2329.60;;;;;;4952796;28;20484;-79
2022/05/02 00:42:33;;;;;;;10.00;4.43;;;308.10;2304.00;;;;;;4951754;28;20034;-81
2022/05/02 00:44:59;;;;;;;6.47;3.40;;;308.10;2304.00;;;;;;4952181;28;20024;-80
2022/05/02 00:47:25;;;;;;;8.45;3.45;;;308.10;2304.00;;;;;;4953132;28;20502;-81
2022/05/02 00:49:52;;;;;;;9.95;4.05;;;332.90;2329.60;;;;;;4970597;28;20072;-80
2022/05/02 00:52:19;;;;;;;6.40;3.15;;;332.80;2329.60;;;;;;4950404;28;20023;-80
2022/05/02 00:54:46;;;;;;;5.90;3.20;;;332.90;2329.60;;;;;;4952984;28;20130;-79
2022/05/02 00:57:13;;;;;;;5.30;3.45;;;332.80;2329.60;;;;;;4953093;28;20023;-81
2022/05/02 00:59:40;;;;;;;7.35;3.70;;;332.80;2329.60;;;;;;4952934;28;20098;-81
2022/05/02 01:02:07;;;;;;;5.55;3.00;;;332.90;2329.60;;;;;;4955890;28;20033;-80
2022/05/02 01:04:34;;;;;;;9.93;4.22;;;332.80;2329.60;;;;;;4955484;28;20015;-81
2022/05/02 01:07:18;;;;;;;8.35;3.70;;;332.90;2329.60;;;;;;4955949;28;20034;-78
2022/05/02 01:09:46;;;;;;;7.75;3.28;;;332.90;2329.60;;;;;;4954976;28;20042;-80
2022/05/02 01:12:24;;;;;;;5.22;3.38;;;332.90;2329.60;;;;;;4972993;28;20019;-80
2022/05/02 01:14:54;;;;;;;7.57;3.75;;;332.80;2329.60;;;;;;4953368;28;20353;-81
2022/05/02 01:17:20;;;;;;;6.65;3.40;;;332.90;2329.60;;;;;;4972856;28;20389;-81
2022/05/02 01:19:47;;;;;;;5.85;3.65;;;332.90;2329.60;;;;;;4973269;28;20018;-79
2022/05/02 01:22:13;;;;;;;6.90;3.90;;;332.90;2329.60;;;;;;4976118;28;20069;-80
2022/05/02 01:24:46;;;;;;;5.97;4.28;;;332.80;2329.60;;;;;;4976039;28;20070;-80
2022/05/02 01:27:13;;;;;;;8.13;3.80;;;332.80;2329.60;;;;;;4957034;28;20106;-80
2022/05/02 01:29:42;;;;;;;6.75;3.70;;;308.10;2304.00;;;;;;4958692;28;20046;-80
2022/05/02 01:32:10;;;;;;;6.80;3.78;;;308.10;2304.00;;;;;;4976373;28;20110;-81
2022/05/02 01:34:37;;;;;;;6.85;3.70;;;308.00;2304.00;;;;;;4976230;28;20089;-81
2022/05/02 01:37:03;;;;;;;6.70;3.45;;;308.00;2304.00;;;;;;4958988;28;20019;-80
2022/05/02 01:39:29;;;;;;;7.60;3.53;;;307.90;2304.00;;;;;;4975720;28;20022;-80
2022/05/02 01:42:03;;;;;;;5.70;3.75;;;307.80;2304.00;;;;;;4958964;28;20476;-80
2022/05/02 01:44:29;;;;;;;6.80;4.20;;;307.80;2304.00;;;;;;4958828;28;20026;-81
2022/05/02 01:46:55;;;;;;;7.85;4.43;;;307.80;2304.00;;;;;;4958384;28;20073;-81
2022/05/02 01:49:21;;;;;;;7.05;4.07;;;307.70;2304.00;;;;;;4958535;28;20030;-81
2022/05/02 01:51:47;;;;;;;7.32;3.83;;;307.70;2304.00;;;;;;4958483;28;20030;-80
2022/05/02 01:54:13;;;;;;;6.95;3.80;;;307.70;2304.00;;;;;;4975148;28;20019;-81
2022/05/02 01:56:38;;;;;;;4.95;3.40;;;307.70;2304.00;;;;;;4975797;28;20469;-81
2022/05/02 01:59:05;;;;;;;5.85;3.95;;;307.70;2304.00;;;;;;4975669;28;20043;-81
2022/05/02 02:01:31;;;;;;;6.07;3.33;;;307.80;2304.00;;;;;;4970552;28;20027;-80
2022/05/02 02:05:48;;;;;;;5.85;3.55;;;307.70;2304.00;;;;;;4958639;28;20023;-81
2022/05/02 02:06:48;;;;;;;6.90;3.97;;;307.70;2304.00;;;;;;4975110;28;20027;-80
2022/05/02 02:09:14;;;;;;;6.47;4.03;;;307.60;2304.00;;;;;;4958004;28;20037;-80
2022/05/02 02:11:41;;;;;;;8.43;3.90;;;307.60;2304.00;;;;;;4958278;28;20023;-81
2022/05/02 02:14:06;;;;;;;8.48;3.72;;;307.60;2304.00;;;;;;4958348;28;20652;-80
2022/05/02 02:16:32;;;;;;;6.75;3.75;;;307.60;2304.00;;;;;;4958557;28;20087;-80
2022/05/02 02:18:58;;;;;;;5.53;3.85;;;307.60;2304.00;;;;;;4957993;28;20026;-80
2022/05/02 02:21:24;;;;;;;4.90;3.25;;;307.60;2304.00;;;;;;4975217;28;20126;-81
2022/05/02 02:23:49;;;;;;;7.28;3.88;;;307.60;2304.00;;;;;;4958133;28;20388;-81
2022/05/02 02:26:15;;;;;;;11.15;3.97;;;307.60;2304.00;;;;;;4975259;28;20015;-80
2022/05/02 02:28:41;;;;;;;6.53;3.40;;;307.60;2304.00;;;;;;4957862;28;20027;-81
2022/05/02 02:31:07;;;;;;;7.60;3.47;;;307.60;2304.00;;;;;;4975118;28;20098;-80
2022/05/02 02:33:33;;;;;;;6.10;3.75;;;307.60;2304.00;;;;;;4954450;28;20089;-80
2022/05/02 02:35:59;;;;;;;9.25;3.60;;;307.60;2304.00;;;;;;4975199;28;20538;-80
2022/05/02 02:38:26;;;;;;;5.35;3.22;;;307.60;2304.00;;;;;;4957741;28;20034;-81
2022/05/02 02:40:52;;;;;;;6.25;3.60;;;307.60;2304.00;;;;;;4957350;28;20034;-80
2022/05/02 02:43:18;;;;;;;6.05;3.60;;;307.60;2304.00;;;;;;4957554;28;20090;-79
2022/05/02 02:45:44;;;;;;;6.55;3.97;;;307.60;2304.00;;;;;;4975009;28;20050;-80
2022/05/02 02:48:10;;;;;;;8.30;4.03;;;307.60;2304.00;;;;;;4974887;28;20022;-80
2022/05/02 02:50:36;;;;;;;4.80;3.35;;;307.60;2304.00;;;;;;4957578;28;20370;-80
2022/05/02 02:53:01;;;;;;;5.63;3.03;;;307.60;2304.00;;;;;;4974711;28;20023;-81
2022/05/02 02:55:27;;;;;;;;;;;307.70;2304.00;;;;;;4958035;28;20492;-80
2022/05/02 02:57:53;;;;;;;9.75;4.18;;;307.60;2304.00;;;;;;4974348;28;19945;-81
2022/05/02 03:00:19;;;;;;;4.70;3.03;;;307.60;2304.00;;;;;;4949348;28;20106;-80
2022/05/02 03:02:45;;;;;;;10.23;4.50;;;307.60;2304.00;;;;;;4946658;28;20031;-81
2022/05/02 03:07:58;;;;;;;7.30;3.92;;;307.60;2304.00;;;;;;4962093;28;20451;-81
2022/05/02 03:10:24;;;;;;;7.55;3.67;;;307.60;2304.00;;;;;;4964306;28;20402;-80
2022/05/02 03:12:49;;;;;;;4.35;2.97;;;307.60;2304.00;;;;;;4948497;28;20389;-80
2022/05/02 03:15:15;;;;;;;7.10;4.07;;;307.70;2304.00;;;;;;4945783;28;20027;-80
2022/05/02 03:17:41;;;;;;;6.47;3.22;;;307.70;2304.00;;;;;;4947221;28;20030;-81
2022/05/02 03:20:07;;;;;;;6.30;3.30;;;307.70;2304.00;;;;;;4946771;28;20527;-81
2022/05/02 03:22:33;;;;;;;7.45;3.45;;;307.50;2304.00;;;;;;4940526;28;20143;-79
2022/05/02 03:24:59;;;;;;;5.30;3.13;;;307.70;2304.00;;;;;;4946184;28;20061;-79
2022/05/02 03:27:24;;;;;;;6.70;4.03;;;307.70;2304.00;;;;;;4947285;28;20030;-80
2022/05/02 03:29:50;;;;;;;5.43;3.45;;;307.70;2304.00;;;;;;4947696;28;20133;-81
2022/05/02 03:32:16;;;;;;;5.72;3.70;;;307.80;2304.00;;;;;;4942985;28;20027;-80
2022/05/02 03:34:42;;;;;;;6.72;3.50;;;307.70;2304.00;;;;;;4948169;28;20033;-80
2022/05/02 03:37:07;;;;;;;5.30;3.35;;;307.70;2304.00;;;;;;4947602;28;20031;-80
2022/05/02 03:39:33;;;;;;;7.80;3.90;;;307.70;2304.00;;;;;;4946017;28;20027;-80
2022/05/02 03:41:59;;;;;;;10.90;3.42;;;307.80;2304.00;;;;;;4964475;28;20022;-80
2022/05/02 03:44:24;;;;;;;5.05;3.45;;;307.70;2304.00;;;;;;4964413;28;20038;-80
2022/05/02 03:46:50;;;;;;;6.32;3.70;;;307.70;2304.00;;;;;;4945593;28;20110;-79
2022/05/02 03:49:16;;;;;;;;;;;307.70;2304.00;;;;;;4960373;28;20067;-81
2022/05/02 03:51:42;;;;;;;5.40;3.40;;;307.70;2304.00;;;;;;4945903;28;19934;-80
2022/05/02 03:54:08;;;;;;;5.93;3.95;;;307.70;2304.00;;;;;;4946414;28;20030;-79
2022/05/02 03:56:34;;;;;;;8.10;3.80;;;307.70;2304.00;;;;;;4947381;28;20366;-80
2022/05/02 03:59:00;;;;;;;7.57;3.35;;;307.80;2304.00;;;;;;4945894;28;20035;-81
2022/05/02 04:01:25;;;;;;;6.53;4.22;;;307.80;2304.00;;;;;;4948402;28;20047;-81
2022/05/02 04:03:51;;;;;;;5.75;4.00;;;307.70;2304.00;;;;;;4962630;28;20477;-80
2022/05/02 04:06:17;;;;;;;6.03;4.13;;;307.80;2304.00;;;;;;4945385;28;20033;-81
2022/05/02 04:08:43;;;;;;;5.85;3.28;;;307.80;2304.00;;;;;;4963581;28;20036;-81
2022/05/02 04:11:08;;;;;;;6.07;3.60;;;307.80;2304.00;;;;;;4963553;28;20019;-80
2022/05/02 04:13:34;;;;;;;7.65;4.00;;;307.90;2304.00;;;;;;4963883;28;20023;-80
2022/05/02 04:16:00;;;;;;;5.10;3.17;;;307.90;2304.00;;;;;;4947039;28;20122;-78
2022/05/02 04:18:25;;;;;;;6.95;4.35;;;307.90;2304.00;;;;;;4963326;28;20035;-80
2022/05/02 04:20:51;;;;;;;9.00;3.90;;;307.90;2304.00;;;;;;4962349;28;20464;-80
2022/05/02 04:23:17;;;;;;;8.35;3.88;;;307.90;2304.00;;;;;;4964602;28;20029;-81
2022/05/02 04:25:43;;;;;;;8.48;4.25;;;308.00;2304.00;;;;;;4963347;28;20065;-80
2022/05/02 04:28:09;;;;;;;6.60;3.88;;;308.00;2304.00;;;;;;4947882;28;20042;-80
2022/05/02 04:30:35;;;;;;;15.18;5.22;;;308.00;2304.00;;;;;;4962218;28;20034;-80
2022/05/02 04:33:01;;;;;;;6.93;4.50;;;308.10;2304.00;;;;;;4962362;28;20062;-80
2022/05/02 04:35:27;;;;;;;5.75;3.85;;;308.10;2304.00;;;;;;4963180;28;20062;-80
2022/05/02 04:37:53;;;;;;;7.15;5.10;;;308.10;2304.00;;;;;;4947127;28;20035;-81
2022/05/02 04:40:19;;;;;;;12.35;5.35;;;308.10;2304.00;;;;;;4962373;28;20473;-80
2022/05/02 04:42:45;;;;;;;6.43;4.25;;;308.10;2304.00;;;;;;4946346;28;20027;-79
2022/05/02 04:45:11;;;;;;;6.43;4.45;;;332.80;2329.60;;;;;;4946551;28;20380;-80
2022/05/02 04:47:37;;;;;;;7.90;4.60;;;332.90;2329.60;;;;;;4960328;28;20034;-80
2022/05/02 04:50:03;;;;;;;14.23;6.15;;;332.90;2329.60;;;;;;4963195;28;20062;-79
2022/05/02 04:52:29;;;;;;;8.13;4.90;;;332.90;2329.60;;;;;;4964264;28;20023;-80
2022/05/02 04:54:55;;;;;;;9.38;4.60;;;333.10;2329.60;;;;;;4946507;28;20033;-79
2022/05/02 04:57:21;;;;;;;6.82;4.30;;;333.10;2329.60;;;;;;4965746;28;20023;-78
2022/05/02 04:59:46;;;;;;;;;;;333.20;2329.60;;;;;;4961936;28;20039;-78
2022/05/02 05:02:12;;;;;;;6.97;4.50;;;333.30;2329.60;;;;;;4939664;29;20005;-78
2022/05/02 05:04:38;;;;;;;6.72;4.63;;;333.20;2329.60;;;;;;4957233;29;20027;-78
2022/05/02 05:07:04;;;;;;;8.07;4.88;;;333.30;2329.60;;;;;;4956737;29;20071;-78
2022/05/02 05:09:30;;;;;;;10.68;4.32;;;333.40;2329.60;;;;;;4939369;29;20039;-77
2022/05/02 05:12:05;;;;;;;8.63;4.45;;;333.50;2329.60;;;;;;4956661;29;20484;-77
2022/05/02 05:17:53;;;;;;;8.98;4.00;;;333.70;2329.60;;;;;;4956545;29;20400;-73
2022/05/02 05:20:22;;;;;;;6.95;4.15;;;358.40;2329.60;;;;;;4939148;29;20034;-74
2022/05/02 05:23:29;;;;;;;13.70;4.45;;;358.50;2329.60;;;;;;4956566;29;20066;-75
2022/05/02 05:25:58;;;;;;;7.00;3.67;;;358.60;2329.60;;;;;;4955717;29;20101;-75
2022/05/02 05:28:41;;;;;;;6.53;4.18;;;358.70;2329.60;;;;;;4954278;29;20031;-76
2022/05/02 05:31:25;;;;;;;6.60;3.70;;;358.80;2329.60;;;;;;4954971;29;20046;-78
2022/05/02 05:34:06;;;;;;;7.63;4.30;;;358.90;2329.60;;;;;;4956615;29;20023;-78
2022/05/02 05:37:09;;;;;;;10.00;3.95;;;359.00;2329.60;;;;;;4954260;29;20082;-78
2022/05/02 05:39:53;;;;;;;5.72;3.47;;;359.20;2329.60;;;;;;4939725;29;20057;-80
2022/05/02 05:42:48;;;;;;;5.32;2.75;;;384.00;2329.60;;;;;;4956287;29;20545;-79
2022/05/02 05:46:03;;;;;;;6.88;3.42;;;384.10;2329.60;;;;;;4938030;29;20027;-80
2022/05/02 05:48:49;;;;;;;7.45;2.97;;;384.30;2329.60;;;;;;4809010;29;20047;-80
2022/05/02 05:51:36;;;;;;;5.93;2.90;;;384.40;2329.60;;;;;;4808702;29;20121;-76
2022/05/02 05:54:29;;;;;;;5.03;3.20;;;384.60;2329.60;;;;;;4808319;29;20030;-78
2022/05/02 05:57:05;;;;;;;6.38;3.15;;;384.70;2329.60;;;;;;4823595;29;20038;-77
2022/05/02 06:00:09;;;;;;;6.47;2.78;;;384.90;2329.60;;;;;;4816808;29;20050;-77
2022/05/02 06:02:55;;;;;;;5.00;2.70;;;409.60;2355.20;;;;;;4841835;29;20046;-78
2022/05/02 06:05:21;;;;;;;8.65;2.90;;;409.70;2329.60;;;;;;4826186;29;20037;-77
2022/05/02 06:07:47;;;;;;;5.43;2.97;;;409.80;2329.60;;;;;;4840939;29;20439;-79
2022/05/02 06:10:16;;;;;;;5.22;2.30;;;409.90;2355.20;;;;;;4841820;29;20050;-76
2022/05/02 06:12:44;;;;;;;6.28;2.80;;;409.90;2252.80;;;;;;4841677;29;20038;-80
2022/05/02 06:20:45;;;;;;;6.13;2.40;;;410.30;2124.80;;;;;;4841989;29;20476;-78
2022/05/02 06:23:16;;;;;;;8.15;2.53;;;410.50;2201.60;;;;;;4826403;29;20062;-78
2022/05/02 06:25:48;;;;;;;3.90;2.40;;;435.20;2278.40;;;;;;4902649;29;20102;-80
2022/05/02 06:28:15;;;;;;;4.15;2.47;;;435.30;2124.80;;;;;;4936937;29;20047;-79
2022/05/02 06:30:43;;;;;;;5.55;2.42;;;435.30;2073.60;;;;;;4935589;29;20047;-78
2022/05/02 06:33:14;;;;;;;4.28;2.50;;;435.50;2048.00;;;;;;4935544;29;20466;-79
2022/05/02 06:35:56;;;;;;;4.43;2.42;;;435.60;2022.40;;;;;;4936288;29;20114;-78
2022/05/02 06:38:46;;;;;;;4.30;2.63;;;435.80;2022.40;;;;;;4936831;29;20027;-79
2022/05/02 06:41:27;;;;;;;8.10;2.38;;;435.90;1971.20;;;;;;4941891;29;20502;-78
2022/05/02 06:43:55;;;;;;;5.22;2.30;;;436.00;1996.80;;;;;;4935363;29;20039;-81
2022/05/02 06:46:32;;;;;;;5.43;2.22;;;460.80;1945.60;;;;;;4937901;29;20057;-80
2022/05/02 06:49:03;;;;;;;4.00;2.78;;;460.80;1920.00;;;;;;4936259;29;20074;-80
2022/05/02 06:51:35;;;;;;;7.32;2.90;;;460.90;1945.60;;;;;;4937144;29;20059;-79
2022/05/02 06:54:19;;;;;;;6.25;2.63;;;461.00;1996.80;;;;;;4937128;29;20039;-77
2022/05/02 06:57:14;;;;;;;5.97;3.78;;;461.10;1996.80;;;;;;4937412;29;20035;-77
2022/05/02 06:59:46;;;;;;;6.25;2.83;;;461.20;1971.20;;;;;;4944853;28;20030;-78
2022/05/02 07:02:26;;;;;;;4.50;3.35;;;461.20;1894.40;;;;;;4956493;28;20029;-80
2022/05/02 07:04:56;;;;;;;5.03;2.88;;;461.30;1920.00;;;;;;4957198;28;20118;-81
2022/05/02 07:07:37;;;;;;;7.88;2.75;;;461.40;1971.20;;;;;;4955350;28;20037;-78
2022/05/02 07:10:05;;;;;;;5.22;2.17;;;461.50;1920.00;;;;;;4957731;28;20035;-77
2022/05/02 07:12:34;;;;;;;4.90;2.90;;;461.50;1920.00;;;;;;4974643;28;20473;-79
2022/05/02 07:15:16;;;;;;;9.77;2.83;;;486.60;1945.60;;;;;;4957301;28;20066;-78
2022/05/02 07:18:05;;;;;;;6.75;3.42;;;461.70;1945.60;;;;;;4956226;28;20500;-79
2022/05/02 07:20:58;;;;;;;4.55;2.50;;;486.40;1971.20;;;;;;4956246;28;20105;-77
2022/05/02 07:23:32;;;;;;;7.00;3.00;;;486.50;1945.60;;;;;;4955050;28;20485;-80
2022/05/02 07:26:07;;;;;;;6.10;3.40;;;486.60;1868.80;;;;;;4952635;28;20023;-80
2022/05/02 07:28:35;;;;;;;3.55;2.08;;;486.80;1945.60;;;;;;4956693;28;20031;-75
2022/05/02 07:31:02;;;;;;;7.82;2.58;;;486.80;1868.80;;;;;;4957095;28;20509;-77
2022/05/02 07:33:33;;;;;;;5.53;2.45;;;486.80;1766.40;;;;;;4973963;28;20061;-77
2022/05/02 07:36:02;;;;;;;5.25;2.00;;;487.00;1766.40;;;;;;4974103;28;20027;-78
2022/05/02 07:38:35;;;;;;;4.60;2.10;;;487.20;1766.40;;;;;;4972682;28;20034;-77
2022/05/02 07:44:04;;;;;;;6.60;2.08;;;487.30;1612.80;;;;;;4974069;28;20034;-77
2022/05/02 07:46:35;;;;;;;5.20;2.10;;;512.00;1715.20;;;;;;4974063;28;20060;-76
2022/05/02 07:49:03;;;;;;;4.07;2.00;;;512.10;1664.00;;;;;;4973646;28;20026;-77
2022/05/02 07:51:30;;;;;;;4.47;2.05;;;512.20;1561.60;;;;;;4974020;28;20023;-78
2022/05/02 07:54:00;;;;;;;5.57;2.08;;;512.30;1561.60;;;;;;4956509;28;20039;-76
2022/05/02 07:56:28;;;;;;;11.35;2.30;;;512.30;1536.00;;;;;;4956613;28;20031;-77
2022/05/02 07:58:57;;;;;;;6.88;2.08;;;512.40;1536.00;;;;;;4972355;28;20050;-76
2022/05/02 08:01:24;;;;;;;4.28;1.73;;;512.40;1510.40;;;;;;4973981;28;20123;-79
2022/05/02 08:03:51;;;;;;;5.00;1.95;;;512.50;1459.20;;;;;;4973735;28;20161;-79
2022/05/02 08:06:22;;;;;;;3.60;2.20;;;512.70;1536.00;;;;;;4956215;28;20489;-79
2022/05/02 08:09:01;;;;;;;3.97;1.98;;;512.60;1484.80;;;;;;4973681;28;20122;-77
2022/05/02 08:11:33;;;;;;;6.53;2.10;;;512.70;1484.80;;;;;;4973541;28;20073;-76
2022/05/02 08:14:20;;;;;;;3.58;2.00;;;512.90;1484.80;;;;;;4973539;28;20030;-78
2022/05/02 08:17:02;;;;;;;6.13;1.90;;;512.90;1510.40;;;;;;4973624;28;20030;-77
2022/05/02 08:19:55;;;;;;;6.22;2.15;;;537.70;1561.60;;;;;;4973688;28;20024;-75
2022/05/02 08:28:41;;;;;;;10.30;2.30;;;537.70;1536.00;;;;;;4972541;28;20046;-75
2022/05/02 08:31:15;;;;;;;3.80;2.00;;;537.70;1484.80;;;;;;4972398;28;20135;-77
2022/05/02 08:33:51;;;;;;;4.65;1.77;;;537.70;1510.40;;;;;;4976744;28;20022;-77
2022/05/02 08:36:35;;;;;;;3.22;1.92;;;537.90;1536.00;;;;;;4976652;28;20023;-75
2022/05/02 08:39:05;;;;;;;7.80;2.42;;;538.00;1536.00;;;;;;4959516;28;20083;-75
2022/05/02 08:41:32;;;;;;;4.22;1.95;;;538.00;1536.00;;;;;;4959220;28;20041;-76
2022/05/02 08:44:17;;;;;;;3.22;2.08;;;537.90;1484.80;;;;;;4959002;28;20022;-77
2022/05/02 08:47:14;;;;;;;4.43;2.25;;;537.90;1536.00;;;;;;4954018;28;20031;-78
2022/05/02 08:50:01;;;;;;;3.78;2.10;;;537.90;1561.60;;;;;;4975751;28;20031;-76
2022/05/02 08:52:45;;;;;;;5.95;1.92;;;537.90;1561.60;;;;;;4975171;28;20033;-77
2022/05/02 08:55:30;;;;;;;5.40;2.30;;;538.00;1510.40;;;;;;4974717;28;20018;-77
2022/05/02 08:58:46;;;;;;;4.88;2.03;;;538.00;1433.60;;;;;;4975875;28;20022;-77
2022/05/02 09:01:39;;;;;;;6.32;2.17;;;538.10;1459.20;;;;;;4976950;28;20045;-76
2022/05/02 09:04:28;;;;;;;6.25;2.38;;;538.30;1459.20;;;;;;4959625;28;20037;-78
2022/05/02 09:07:06;;;;;;;2.88;1.77;;;538.30;1459.20;;;;;;4917365;29;20391;-77
2022/05/02 09:09:34;;;;;;;3.95;1.95;;;538.30;1433.60;;;;;;4917022;29;20415;-77
2022/05/02 09:12:23;;;;;;;6.28;2.28;;;538.40;1356.80;;;;;;4917290;29;20036;-76
2022/05/02 09:14:57;;;;;;;3.03;1.63;;;538.50;1382.40;;;;;;4879398;29;20048;-76
2022/05/02 09:17:35;;;;;;;3.10;1.65;;;563.40;1433.60;;;;;;4879376;29;20049;-78
2022/05/02 09:20:35;;;;;;;6.63;2.00;;;563.40;1356.80;;;;;;4879366;29;20044;-76
2022/05/02 09:23:30;;;;;;;7.28;2.20;;;563.30;1356.80;;;;;;4878965;29;20029;-76
2022/05/02 09:26:32;;;;;;;3.75;1.83;;;563.30;1356.80;;;;;;4879534;29;20045;-76
2022/05/02 09:29:35;;;;;;;8.40;2.90;;;563.30;1305.60;;;;;;4879069;29;20115;-77
2022/05/02 09:32:16;;;;;;;4.80;2.20;;;563.40;1305.60;;;;;;4879056;29;20057;-76
2022/05/02 09:35:00;;;;;;;5.47;2.22;;;563.60;1305.60;;;;;;4878671;29;20029;-77
2022/05/02 09:37:41;;;;;;;3.30;1.80;;;563.70;1305.60;;;;;;4878642;29;20127;-76
2022/05/02 09:40:17;;;;;;;5.22;2.35;;;563.60;1280.00;;;;;;4879155;29;20037;-77
2022/05/02 09:43:01;;;;;;;;;;;563.70;1280.00;;;;;;4879043;29;20036;-76
2022/05/02 09:51:53;;;;;;;4.97;2.30;;;588.90;1305.60;;;;;;4934375;28;20097;-75
2022/05/02 09:57:59;;;;;;;8.93;2.00;;;563.90;1254.40;;;;;;4976130;28;20097;-76
2022/05/02 10:01:10;;;;;;;4.03;2.03;;;564.10;1228.80;;;;;;4975458;28;20046;-76
2022/05/02 10:03:55;;;;;;;5.88;2.15;;;564.10;1203.20;;;;;;4960964;28;20039;-75
2022/05/02 10:06:35;;;;;;;6.78;2.08;;;563.80;1177.60;;;;;;4973957;28;20094;-77
2022/05/02 10:09:21;;;;;;;2.72;1.70;;;563.60;1152.00;;;;;;4973083;28;20027;-75
2022/05/02 10:12:05;;;;;;;4.55;2.30;;;563.90;1177.60;;;;;;4973886;28;20053;-77
2022/05/02 10:15:08;;;;;;;3.75;2.13;;;588.90;1254.40;;;;;;4972988;28;20023;-76
2022/05/02 10:17:52;;;;;;;7.22;1.90;;;588.90;1203.20;;;;;;4955489;28;20039;-76
2022/05/02 10:20:20;;;;;;;4.55;2.05;;;588.90;1177.60;;;;;;4973747;28;20050;-78
2022/05/02 10:23:07;;;;;;;4.05;1.95;;;563.90;1228.80;;;;;;4957863;28;20473;-76
2022/05/02 10:25:50;;;;;;;2.63;1.90;;;563.40;1177.60;;;;;;4974958;28;20455;-77
2022/05/02 10:28:19;;;;;;;8.38;2.08;;;563.30;1228.80;;;;;;4975109;28;20026;-76
2022/05/02 10:31:05;;;;;;;5.15;2.08;;;563.30;1280.00;;;;;;4975184;28;20046;-78
2022/05/02 10:33:34;;;;;;;4.13;2.15;;;538.50;1254.40;;;;;;4957691;28;20504;-77
2022/05/02 10:36:04;;;;;;;4.93;2.20;;;538.50;1228.80;;;;;;4957930;28;20046;-78
2022/05/02 10:38:31;;;;;;;7.28;2.00;;;538.50;1254.40;;;;;;4957865;28;20027;-78
2022/05/02 10:41:20;;;;;;;3.92;2.17;;;563.30;1228.80;;;;;;4974938;28;20027;-76
2022/05/02 10:43:53;;;;;;;5.88;2.42;;;563.30;1203.20;;;;;;4974062;28;20030;-76
2022/05/02 10:46:21;;;;;;;9.18;2.33;;;563.20;1228.80;;;;;;4974491;28;20023;-77
2022/05/02 10:49:12;;;;;;;4.40;2.00;;;538.50;1280.00;;;;;;4974092;28;20097;-76
2022/05/02 10:51:56;;;;;;;8.15;2.38;;;538.50;1280.00;;;;;;4954357;29;20063;-76
2022/05/02 10:54:26;;;;;;;3.60;2.20;;;563.40;1280.00;;;;;;4939768;28;20027;-75
2022/05/02 10:56:58;;;;;;;3.70;2.20;;;563.60;1280.00;;;;;;4974200;28;20019;-75
2022/05/02 10:59:29;;;;;;;5.88;1.92;;;563.60;1280.00;;;;;;4973811;28;20097;-75
2022/05/02 11:02:26;;;;;;;6.05;2.30;;;563.30;1254.40;;;;;;4974495;28;20073;-77
2022/05/02 11:05:04;;;;;;;3.20;1.90;;;538.50;1280.00;;;;;;4972430;28;20022;-77
2022/05/02 11:07:38;;;;;;;3.63;2.10;;;538.30;1280.00;;;;;;4972191;28;20106;-78
2022/05/02 11:10:09;;;;;;;3.03;1.88;;;538.20;1305.60;;;;;;4956616;28;20050;-78
2022/05/02 11:13:00;;;;;;;4.60;1.98;;;538.10;1280.00;;;;;;4973813;28;20131;-77
2022/05/02 11:15:37;;;;;;;4.63;2.25;;;538.20;1254.40;;;;;;4956037;28;20341;-77
2022/05/02 11:21:28;;;;;;;3.75;2.13;;;538.20;1305.60;;;;;;4912789;29;20422;-76
2022/05/02 11:24:03;;;;;;;4.57;2.00;;;538.20;1356.80;;;;;;4910350;29;20503;-76
2022/05/02 11:26:43;;;;;;;4.82;2.53;;;538.10;1356.80;;;;;;4914220;29;20087;-76
2022/05/02 11:29:24;;;;;;;5.22;2.10;;;538.20;1305.60;;;;;;4912887;29;20095;-76
2022/05/02 11:32:09;;;;;;;3.83;2.30;;;538.50;1305.60;;;;;;4914170;29;20043;-74
2022/05/02 11:34:55;;;;;;;3.20;1.90;;;563.40;1331.20;;;;;;4914086;29;20032;-75
2022/05/02 11:37:42;;;;;;;7.65;2.78;;;563.30;1254.40;;;;;;4911361;29;20095;-76
2022/05/02 11:40:10;;;;;;;23.33;3.17;;;563.60;1280.00;;;;;;4898231;29;20032;-78
2022/05/02 11:42:42;;;;;;;6.60;1.88;;;563.80;1280.00;;;;;;4913914;29;20083;-77
2022/05/02 11:45:22;;;;;;;6.30;2.13;;;563.80;1254.40;;;;;;4896705;29;20041;-78
2022/05/02 11:48:21;;;;;;;8.70;2.20;;;563.70;1203.20;;;;;;4913905;29;20028;-78
2022/05/02 11:50:48;;;;;;;9.05;2.75;;;563.80;1228.80;;;;;;4912179;28;20546;-79
2022/05/02 11:53:17;;;;;;;4.38;2.53;;;563.60;1254.40;;;;;;4913757;29;20120;-77
2022/05/02 11:55:46;;;;;;;5.55;2.28;;;563.60;1228.80;;;;;;4911835;29;20025;-77
2022/05/02 11:58:23;;;;;;;11.57;2.95;;;563.60;1280.00;;;;;;4950035;28;20035;-77
2022/05/02 12:01:01;;;;;;;5.97;2.45;;;563.60;1254.40;;;;;;4971799;28;20039;-77
2022/05/02 12:03:33;;;;;;;5.47;2.00;;;563.40;1203.20;;;;;;4954285;28;20117;-78
2022/05/02 12:06:04;;;;;;;3.38;2.10;;;563.50;1280.00;;;;;;4972279;28;20034;-78
2022/05/02 12:08:33;;;;;;;4.97;2.40;;;563.40;1254.40;;;;;;4956370;28;20037;-78
2022/05/02 12:11:06;;;;;;;8.45;2.13;;;563.30;1280.00;;;;;;4956022;28;20039;-78
2022/05/02 12:13:35;;;;;;;4.13;2.53;;;563.40;1331.20;;;;;;4973460;28;20034;-77
2022/05/02 12:16:03;;;;;;;5.43;2.50;;;563.30;1254.40;;;;;;4972179;28;20045;-80
2022/05/02 12:18:50;;;;;;;4.93;2.28;;;563.50;1228.80;;;;;;4973251;28;20116;-78
2022/05/02 12:21:51;;;;;;;8.18;2.40;;;563.60;1254.40;;;;;;4973640;28;20023;-77
2022/05/02 12:24:33;;;;;;;6.72;2.17;;;563.40;1305.60;;;;;;4898266;29;20032;-78
2022/05/02 12:26:59;;;;;;;6.97;2.33;;;563.40;1305.60;;;;;;4898181;29;20047;-78
2022/05/02 12:29:27;;;;;;;5.40;2.35;;;563.30;1280.00;;;;;;4912884;29;20048;-79
2022/05/02 12:32:01;;;;;;;4.07;2.70;;;538.50;1305.60;;;;;;4897450;29;20060;-78
2022/05/02 12:34:40;;;;;;;3.17;2.10;;;538.50;1254.40;;;;;;4894839;29;20033;-78
2022/05/02 12:37:30;;;;;;;4.95;2.10;;;563.20;1305.60;;;;;;4913124;29;20051;-76
2022/05/02 12:40:03;;;;;;;4.85;2.20;;;563.60;1305.60;;;;;;4911926;29;20040;-76
2022/05/02 12:42:48;;;;;;;6.38;2.50;;;563.70;1280.00;;;;;;4894718;29;20124;-78
2022/05/02 12:45:17;;;;;;;4.15;2.28;;;563.70;1280.00;;;;;;4911346;29;20047;-78
2022/05/02 12:47:46;;;;;;;4.47;1.92;;;564.00;1254.40;;;;;;4913311;29;20501;-77
2022/05/02 12:50:17;;;;;;;6.78;2.35;;;563.90;1254.40;;;;;;4896861;29;20052;-76
2022/05/02 12:52:51;;;;;;;4.07;2.22;;;563.80;1305.60;;;;;;4912508;29;20498;-78
2022/05/02 12:55:19;;;;;;;4.63;2.20;;;563.60;1280.00;;;;;;4912258;29;20052;-76
2022/05/02 13:00:49;;;;;;;5.47;2.60;;;563.60;1331.20;;;;;;4970376;28;20073;-77
2022/05/02 13:03:17;;;;;;;5.85;2.38;;;563.40;1331.20;;;;;;4970227;28;20019;-80
2022/05/02 13:05:46;;;;;;;3.50;2.00;;;563.30;1305.60;;;;;;4954717;28;20034;-77
2022/05/02 13:08:13;;;;;;;5.65;2.63;;;563.30;1331.20;;;;;;4972584;28;20487;-77
2022/05/02 13:10:40;;;;;;;5.80;2.88;;;563.20;1331.20;;;;;;4972287;28;20030;-76
2022/05/02 13:13:14;;;;;;;8.48;2.50;;;538.50;1331.20;;;;;;4955269;28;20038;-78
2022/05/02 13:15:47;;;;;;;5.75;1.95;;;563.20;1356.80;;;;;;4970514;28;20064;-76
2022/05/02 13:18:16;;;;;;;6.25;2.38;;;563.30;1331.20;;;;;;4972862;28;20054;-75
2022/05/02 13:20:56;;;;;;;2.95;2.17;;;563.40;1331.20;;;;;;4976174;28;20473;-79
2022/05/02 13:23:22;;;;;;;5.10;2.88;;;563.50;1356.80;;;;;;4956779;28;20026;-78
2022/05/02 13:25:54;;;;;;;5.32;2.08;;;563.40;1305.60;;;;;;4975811;28;20576;-76